Sun Prairie, WI (53590)

1:33 AM CST on February 27, 2015 (GMT -0600)
Northside School | Change Station
CLOSE
Current Station
Personal Weather Station
Location: Sun Prairie, WI
Elevation: 1007 ft
Nearby Weather Stations
Active Advisory: Special Statement

Elev 1007 ft 43.19 °N, 89.22 °W | Updated 1 second ago

Clear
Clear
1.2 °F
Feels Like 1 °F
N
0.0
Wind Variable Wind from North
Gusts 0.0 mph

Today
High -- | Low -- °F
--% Chance of Precip.
Yesterday
High -- | Low -- °F
Precip. -- in
6:36 AM 5:43 PM
Waxing Gibbous, 66% visible
Pressure 30.51 in
Visibility 10.0 miles
Clouds Clear
Windchill 1 °F
Dew Point -6 °F
Humidity 71%
Rainfall 0.00 in
Snow Depth Not available.
UV 0 out of 12
Pollen .40 out of 12
Air Quality Not available.
Flu Activity Not available.
METAR KMSN 270653Z AUTO 29003KT 10SM CLR M19/M23 A3044 RMK AO2 SLP330 T11891228

More Conditions Fewer Conditions

Pressure 30.51 in
Visibility 10.0 miles
Clouds Clear
Windchill 1 °F
Dew Point -6 °F
Humidity 71%
Rainfall 0.00 in
Snow Depth Not available.
UV 0 out of 12
Pollen .40 out of 12
Air Quality Not available.
Flu Activity Not available.
METAR KMSN 270653Z AUTO 29003KT 10SM CLR M19/M23 A3044 RMK AO2 SLP330 T11891228

More Conditions Fewer Conditions

10-Day Weather Forecast

Almanac

Astronomy

Feb. 27, 2015 Rise Set
Actual Time
Civil Twilight
Nautical Twilight
Astronomical Twilight
Moon
Length of Visible Light
Length of Day
Tomorrow will be .
, % of the Moon is Illuminated

Today's Extremes

State Highs State Lows

Community

WunderPhotos

Upload Photos

1,800,646 photos uploaded!

WunderBlogs® & News

Nearby

Air Quality

  Air Quality AQ Index Pollutant
Not available.

Snow Depth

Station Depth Elevation

Earthquake Activity

City Distance Mag. Time & Date
Minimum magnitude displayed is 2.5.

Coastal Water Temperatures

Place Temperature

Nearby Weather Stations

Special Statement
Statement as of 9:06 PM CST on February 26, 2015

... Bitterly cold temperatures and wind chills return...

An Arctic air mass has once again settled over southern Wisconsin.
Temperatures for tonight and Friday night will drop to nearly ten
below zero inland from Lake Michigan. The winds will remain
relatively light but will still cause wind chill temperatures to
drop in the teens below zero at times. The bitterly cold
temperatures and wind chills will linger into the morning daylight
hours on Friday and Saturday as well. Temperatures are expected
to rise into the teens for each afternoon.

If going out... be sure to dress in layers and limit exposure.